Flight Track Log - Related Links

Times and Time Zones

All times are in EDT time to prevent confusion due to time zone crossing. See the UAL1605 flight status page for this flight to view local times or setup timezone preferences in your user account.

Time Position Orientation Groundspeed Altitude Reporting Facility
EDT Latitude Longitude Course Direction KTS MPH feet Rate Location/Type
Wed 05:35:23 AM 18.4333 -65.9667 North 180 207 1,200  Level San Juan Center
Wed 05:36:23 AM 18.4833 -65.9333 32° Northeast 240 276 3,200 2,400 Climbing San Juan Center
Wed 05:37:00 AM 18.7726 -65.9796 North  Level FlightAware Approximate
Wed 05:37:23 AM 18.5500 -65.9333 360° North 260 299 6,000  Level San Juan Center
Wed 05:38:00 AM 18.8855 -65.9667 North  Level FlightAware Approximate
Wed 05:38:24 AM 18.6333 -65.9333 360° North 270 311 8,700  Level San Juan Center
Wed 05:39:00 AM 18.9993 -65.9667 North  Level FlightAware Approximate
Wed 05:39:24 AM 18.7167 -65.9667 339° North 320 368 10,700  Level San Juan Center
Wed 05:40:00 AM 19.1131 -65.9667 North  Level FlightAware Approximate
Wed 05:40:24 AM 18.8167 -66.0000 342° North 370 426 12,200  Level San Juan Center
Wed 05:41:25 AM 18.9167 -66.0333 342° North 380 437 14,700 2,430 Climbing San Juan Center
Wed 05:42:25 AM 19.0167 -66.0667 343° North 400 460 17,100 1,800 Climbing San Juan Center
Wed 05:43:25 AM 19.1333 -66.1167 338° Northwest 410 472 18,300 1,388 Climbing San Juan Center
Wed 05:44:26 AM 19.2333 -66.1500 343° North 430 495 19,900 1,686 Climbing San Juan Center
Wed 05:45:26 AM 19.3500 -66.1833 345° North 440 506 21,700 1,700 Climbing San Juan Center
Wed 05:46:26 AM 19.4667 -66.2333 338° Northwest 450 518 23,300 1,400 Climbing San Juan Center
Wed 05:47:26 AM 19.6000 -66.2667 347° North 460 529 24,500 1,091 Climbing San Juan Center
Wed 05:48:27 AM 19.7167 -66.3167 338° Northwest 470 541 25,500 1,041 Climbing San Juan Center
Wed 05:49:27 AM 19.8500 -66.3500 347° North 480 552 26,600 1,000 Climbing San Juan Center
Wed 05:50:27 AM 19.9667 -66.4000 338° Northwest 490 564 27,500 992 Climbing San Juan Center
Wed 05:51:28 AM 20.1000 -66.4500 341° North 490 564 28,600 1,190 Climbing San Juan Center
Wed 05:52:28 AM 20.2667 -66.5000 344° North 540 621 29,900 1,400 Climbing San Juan Center
Wed 05:53:28 AM 20.3667 -66.5333 343° North 480 552 31,400 1,438 Climbing San Juan Center
Wed 05:54:29 AM 20.5000 -66.5833 341° North 490 564 32,800 1,140 Climbing San Juan Center
Wed 05:55:29 AM 20.6333 -66.6167 347° North 470 541 33,700 600 Climbing San Juan Center
Wed 05:56:29 AM 20.7500 -66.6667 338° Northwest 470 541 34,000 149 Climbing San Juan Center
Wed 05:57:30 AM 20.8833 -66.7000 347° North 480 552 34,000  Level San Juan Center
Wed 05:58:30 AM 21.0167 -66.7500 341° North 480 552 34,000  Level San Juan Center
Wed 05:59:30 AM 21.1333 -66.8000 338° Northwest 480 552 34,000  Level San Juan Center
Wed 06:00:31 AM 21.2667 -66.8333 347° North 490 564 34,000  Level San Juan Center
Wed 06:01:31 AM 21.4000 -66.8833 341° North 480 552 34,000 -50 Level San Juan Center
Wed 06:02:31 AM 21.5167 -66.9333 338° Northwest 480 552 33,900  Descending San Juan Center
Wed 06:03:32 AM 21.6500 -66.9667 347° North 480 552 34,000 50 Climbing San Juan Center
Wed 06:04:32 AM 21.8000 -67.0333 338° Northwest 470 541 34,000  Level San Juan Center
Wed 06:06:00 AM 21.9525 -67.1368 328° Northwest  Level FlightAware Approximate
Wed 06:07:03 AM 21.7667 -67.0167 329° Northwest 483 556 34,000  Level New York Oceanic (ODAPS)
Wed 06:09:56 AM 22.2333 -67.3167 349° North 493 567 34,000  Level New York Oceanic (ODAPS)
Wed 06:13:00 AM 22.9113 -67.4567 349° North 483 556 34,000  Level FlightAware Transoceanic
Wed 06:14:00 AM 23.0469 -67.4848 349° North 483 556 34,000  Level FlightAware Transoceanic
Wed 06:15:00 AM 23.1824 -67.5131 349° North 483 556 34,000  Level FlightAware Transoceanic
Wed 06:16:00 AM 23.3180 -67.5414 349° North 493 567 34,000  Level FlightAware Transoceanic
Wed 06:17:00 AM 23.4535 -67.5697 349° North 493 567 34,000  Level FlightAware Transoceanic
Wed 06:18:00 AM 23.5891 -67.5981 349° North 493 567 34,000  Level FlightAware Transoceanic
Wed 06:19:00 AM 23.7246 -67.6266 349° North 493 567 34,000  Level FlightAware Transoceanic
Wed 06:20:00 AM 23.8602 -67.6551 349° North 493 567 34,000  Level FlightAware Transoceanic
Wed 06:21:00 AM 23.9957 -67.6837 349° North 493 567 34,000  Level FlightAware Transoceanic
Wed 06:22:00 AM 24.1313 -67.7123 349° North 493 567 34,000  Level FlightAware Transoceanic
Wed 06:23:00 AM 24.2668 -67.7410 349° North 493 567 34,000  Level FlightAware Transoceanic
Wed 06:24:00 AM 24.4023 -67.7698 349° North 493 567 34,000  Level FlightAware Transoceanic
Wed 06:25:00 AM 24.5378 -67.7986 349° North 493 567 34,000  Level FlightAware Transoceanic
Wed 06:26:00 AM 24.6733 -67.8275 349° North 493 567 34,000  Level FlightAware Transoceanic
Wed 06:27:00 AM 24.8088 -67.8564 349° North 493 567 34,000  Level FlightAware Transoceanic
Wed 06:28:00 AM 24.9443 -67.8854 349° North 493 567 34,000  Level FlightAware Transoceanic
Wed 06:29:00 AM 25.0798 -67.9145 349° North 493 567 34,000  Level FlightAware Transoceanic
Wed 06:30:00 AM 25.2153 -67.9436 349° North 493 567 34,000  Level FlightAware Transoceanic
Wed 06:31:00 AM 25.3508 -67.9728 349° North 493 567 34,000  Level FlightAware Transoceanic
Wed 06:32:00 AM 25.4863 -68.0021 349° North 493 567 34,000  Level FlightAware Transoceanic
Wed 06:33:00 AM 25.6217 -68.0314 349° North 493 567 34,000 1,154 Level FlightAware Transoceanic
Wed 06:33:44 AM 25.4667 -68.0000 349° North 474 545 36,000  Climbing New York Oceanic (ODAPS)
Wed 06:34:00 AM 25.7572 -68.0608 349° North 493 567 34,000 -1,579 Descending FlightAware Transoceanic
Wed 06:35:00 AM 25.8927 -68.0903 349° North 493 567 34,000  Level FlightAware Transoceanic
Wed 06:36:00 AM 26.0281 -68.1199 349° North 493 567 34,000  Level FlightAware Transoceanic
Wed 06:37:00 AM 26.1636 -68.1495 349° North 493 567 34,000  Level FlightAware Transoceanic
Wed 06:38:00 AM 26.2990 -68.1791 349° North 493 567 34,000  Level FlightAware Transoceanic
Wed 06:39:00 AM 26.4344 -68.2089 349° North 493 567 34,000 1,000 Level FlightAware Transoceanic
Wed 06:40:00 AM 26.5024 -68.2256 349° North 474 545 36,000 1,000 Climbing FlightAware Transoceanic
Wed 06:41:00 AM 26.6318 -68.2541 349° North 474 545 36,000  Level FlightAware Transoceanic
Wed 06:42:00 AM 26.7613 -68.2826 349° North 474 545 36,000  Level FlightAware Transoceanic
Wed 06:43:00 AM 26.8907 -68.3112 349° North 474 545 36,000  Level FlightAware Transoceanic
Wed 06:44:00 AM 27.0201 -68.3399 349° North 474 545 36,000  Level FlightAware Transoceanic
Wed 06:45:00 AM 27.1496 -68.3686 349° North 474 545 36,000  Level FlightAware Transoceanic
Wed 06:46:00 AM 27.2790 -68.3974 349° North 474 545 36,000  Level FlightAware Transoceanic
Wed 06:47:00 AM 27.4084 -68.4263 349° North 474 545 36,000  Level FlightAware Transoceanic
Wed 06:48:00 AM 27.5378 -68.4552 349° North 474 545 36,000  Level FlightAware Transoceanic
Wed 06:49:00 AM 27.6672 -68.4843 349° North 474 545 36,000  Level FlightAware Transoceanic
Wed 06:50:00 AM 27.7966 -68.5133 349° North 474 545 36,000  Level FlightAware Transoceanic
Wed 06:51:00 AM 27.9260 -68.5425 349° North 474 545 36,000  Level FlightAware Transoceanic
Wed 06:52:00 AM 28.0553 -68.5717 349° North 474 545 36,000  Level FlightAware Transoceanic
Wed 06:52:08 AM 27.9333 -68.5333 349° North 492 566 36,000  Level New York Oceanic (ODAPS)
Wed 06:53:00 AM 28.1847 -68.6010 349° North 474 545 36,000  Level FlightAware Transoceanic
Wed 06:54:00 AM 28.3141 -68.6303 349° North 474 545 36,000  Level FlightAware Transoceanic
Wed 06:55:00 AM 28.4434 -68.6598 349° North 474 545 36,000  Level FlightAware Transoceanic
Wed 06:56:00 AM 28.5728 -68.6893 349° North 474 545 36,000  Level FlightAware Transoceanic
Wed 06:57:00 AM 28.7021 -68.7189 349° North 474 545 36,000  Level FlightAware Transoceanic
Wed 06:58:00 AM 28.8777 -68.7517 348° North 492 566 36,000  Level FlightAware Transoceanic
Wed 06:59:00 AM 29.0125 -68.7832 348° North 492 566 36,000  Level FlightAware Transoceanic
Wed 07:00:00 AM 29.1474 -68.8148 348° North 492 566 36,000  Level FlightAware Transoceanic
Wed 07:01:00 AM 29.2823 -68.8465 348° North 492 566 36,000  Level FlightAware Transoceanic
Wed 07:02:00 AM 29.4171 -68.8782 348° North 492 566 36,000  Level FlightAware Transoceanic
Wed 07:03:00 AM 29.5520 -68.9101 348° North 492 566 36,000  Level FlightAware Transoceanic
Wed 07:04:00 AM 29.6868 -68.9420 348° North 492 566 36,000  Level FlightAware Transoceanic
Wed 07:05:00 AM 29.8216 -68.9740 348° North 492 566 36,000  Level FlightAware Transoceanic
Wed 07:06:00 AM 29.9565 -69.0061 348° North 492 566 36,000  Level FlightAware Transoceanic
Wed 07:07:00 AM 30.0913 -69.0383 348° North 492 566 36,000  Level FlightAware Transoceanic
Wed 07:08:00 AM 30.2261 -69.0706 348° North 492 566 36,000  Level FlightAware Transoceanic
Wed 07:09:00 AM 30.3609 -69.1030 348° North 492 566 36,000  Level FlightAware Transoceanic
Wed 07:10:00 AM 30.4957 -69.1354 348° North 492 566 36,000  Level FlightAware Transoceanic
Wed 07:11:00 AM 30.6305 -69.1680 348° North 492 566 36,000  Level FlightAware Transoceanic
Wed 07:12:00 AM 30.7652 -69.2006 348° North 492 566 36,000  Level FlightAware Transoceanic
Wed 07:13:00 AM 30.9000 -69.2333 349° North 492 566 36,000  Level FlightAware Transoceanic
Wed 07:14:00 AM 31.0242 -69.2628 348° North 492 566 36,000  Level FlightAware Transoceanic
Wed 07:14:36 AM 30.9000 -69.2333 349° North 472 543 36,000  Level New York Oceanic (ODAPS)
Wed 07:15:00 AM 31.1483 -69.2923 348° North 492 566 36,000  Level FlightAware Transoceanic
Wed 07:16:00 AM 31.2724 -69.3219 348° North 492 566 36,000  Level FlightAware Transoceanic
Wed 07:17:00 AM 31.3965 -69.3515 348° North 492 566 36,000  Level FlightAware Transoceanic
Wed 07:18:00 AM 31.5207 -69.3813 348° North 492 566 36,000  Level FlightAware Transoceanic
Wed 07:19:00 AM 31.6448 -69.4111 348° North 492 566 36,000  Level FlightAware Transoceanic
Wed 07:20:00 AM 31.8017 -69.4490 348° North 472 543 36,000  Level FlightAware Transoceanic
Wed 07:21:00 AM 31.9305 -69.4801 348° North 472 543 36,000  Level FlightAware Transoceanic
Wed 07:22:00 AM 32.0592 -69.5113 348° North 472 543 36,000  Level FlightAware Transoceanic
Wed 07:23:00 AM 32.1880 -69.5426 348° North 472 543 36,000  Level FlightAware Transoceanic
Wed 07:24:00 AM 32.3167 -69.5741 348° North 472 543 36,000  Level FlightAware Transoceanic
Wed 07:25:00 AM 32.4455 -69.6056 348° North 472 543 36,000  Level FlightAware Transoceanic
Wed 07:26:00 AM 32.5742 -69.6372 348° North 472 543 36,000  Level FlightAware Transoceanic
Wed 07:27:00 AM 32.7030 -69.6688 348° North 472 543 36,000  Level FlightAware Transoceanic
Wed 07:28:00 AM 32.8317 -69.7006 348° North 472 543 36,000  Level FlightAware Transoceanic
Wed 07:29:00 AM 32.9604 -69.7325 348° North 472 543 36,000  Level FlightAware Transoceanic
Wed 07:30:00 AM 33.0891 -69.7644 348° North 472 543 36,000  Level FlightAware Transoceanic
Wed 07:31:00 AM 33.2178 -69.7965 348° North 472 543 36,000  Level FlightAware Transoceanic
Wed 07:32:00 AM 33.3465 -69.8286 348° North 472 543 36,000  Level FlightAware Transoceanic
Wed 07:33:00 AM 33.4752 -69.8608 348° North 472 543 36,000  Level FlightAware Transoceanic
Wed 07:34:00 AM 33.6039 -69.8932 348° North 472 543 36,000  Level FlightAware Transoceanic
Wed 07:35:00 AM 33.7325 -69.9256 348° North 472 543 36,000  Level FlightAware Transoceanic
Wed 07:36:00 AM 33.8612 -69.9581 348° North 472 543 36,000  Level FlightAware Transoceanic
Wed 07:37:00 AM 33.9898 -69.9908 348° North 472 543 36,000  Level FlightAware Transoceanic
Wed 07:38:00 AM 34.1185 -70.0235 348° North 472 543 36,000  Level FlightAware Transoceanic
Wed 07:39:00 AM 34.2471 -70.0563 348° North 472 543 36,000  Level FlightAware Transoceanic
Wed 07:40:00 AM 34.3758 -70.0892 348° North 472 543 36,000  Level FlightAware Transoceanic
Wed 07:41:00 AM 34.5044 -70.1223 348° North 472 543 36,000  Level FlightAware Transoceanic
Wed 07:42:00 AM 34.6330 -70.1554 348° North 472 543 36,000  Level FlightAware Transoceanic
Wed 07:43:00 AM 34.7616 -70.1886 348° North 472 543 36,000  Level FlightAware Transoceanic
Wed 07:44:00 AM 34.8902 -70.2220 348° North 472 543 36,000  Level FlightAware Transoceanic
Wed 07:45:00 AM 35.0187 -70.2554 348° North 472 543 36,000  Level FlightAware Transoceanic
Wed 07:46:00 AM 35.1473 -70.2890 348° North 472 543 36,000  Level FlightAware Transoceanic
Wed 07:47:00 AM 35.2759 -70.3226 348° North 472 543 36,000  Level FlightAware Transoceanic
Wed 07:48:00 AM 35.4044 -70.3564 348° North 472 543 36,000  Level FlightAware Transoceanic
Wed 07:49:00 AM 35.5330 -70.3902 348° North 472 543 36,000  Level FlightAware Transoceanic
Wed 07:50:00 AM 35.6615 -70.4242 348° North 472 543 36,000  Level FlightAware Transoceanic
Wed 07:51:00 AM 35.7900 -70.4583 348° North 472 543 36,000  Level FlightAware Transoceanic
Wed 07:52:00 AM 35.9185 -70.4925 348° North 472 543 36,000  Level FlightAware Transoceanic
Wed 07:53:00 AM 36.0470 -70.5268 348° North 472 543 36,000  Level FlightAware Transoceanic
Wed 07:54:00 AM 36.1755 -70.5612 348° North 472 543 36,000  Level FlightAware Transoceanic
Wed 07:55:00 AM 36.3040 -70.5957 348° North 472 543 36,000  Level FlightAware Transoceanic
Wed 07:56:00 AM 36.4325 -70.6304 348° North 472 543 36,000  Level FlightAware Transoceanic
Wed 07:57:00 AM 36.5610 -70.6652 348° North 472 543 36,000  Level FlightAware Transoceanic
Wed 07:58:00 AM 36.6894 -70.7000 348° North 472 543 36,000  Level FlightAware Transoceanic
Wed 07:59:00 AM 36.8178 -70.7350 348° North 472 543 36,000  Level FlightAware Transoceanic
Wed 08:00:00 AM 36.9463 -70.7701 348° North 472 543 36,000  Level FlightAware Transoceanic
Wed 08:01:00 AM 37.0747 -70.8054 348° North 472 543 36,000  Level FlightAware Transoceanic
Wed 08:02:00 AM 37.2031 -70.8407 348° North 472 543 36,000  Level FlightAware Transoceanic
Wed 08:03:00 AM 37.3315 -70.8762 348° North 472 543 36,000  Level FlightAware Transoceanic
Wed 08:04:00 AM 37.4599 -70.9118 348° North 472 543 36,000  Level FlightAware Transoceanic
Wed 08:05:00 AM 37.5883 -70.9475 348° North 472 543 36,000  Level FlightAware Transoceanic
Wed 08:05:29 AM 37.4872 -70.9292 326° Northwest 467 537 36,000  Level New York Center
Wed 08:06:00 AM 37.7167 -70.9833 326° Northwest 472 543 36,000  Level FlightAware Transoceanic
Wed 08:06:31 AM 37.6061 -70.9636 347° North 459 528 36,000  Level New York Center
Wed 08:07:00 AM 37.8127 -71.0651 326° Northwest 472 543 36,000 -105 Level FlightAware Transoceanic
Wed 08:07:28 AM 37.7164 -71.0189 338° Northwest 448 516 35,900  Descending New York Center
Wed 08:08:00 AM 37.9088 -71.1471 326° Northwest 472 543 36,000  Climbing FlightAware Transoceanic
Wed 08:08:29 AM 37.7953 -71.1244 313° West 412 474 35,900  Descending New York Center
Wed 08:09:30 AM 37.8722 -71.2300 313° West 412 474 36,000  Climbing New York Center
Wed 08:10:30 AM 37.9550 -71.3333 315° West 407 468 35,900 -50 Descending New York Center
Wed 08:11:31 AM 38.0317 -71.4394 313° West 407 468 35,900 50 Level New York Center
Wed 08:12:31 AM 38.1039 -71.5458 311° West 402 463 36,000  Climbing New York Center
Wed 08:13:29 AM 38.1867 -71.6472 316° Northwest 402 463 35,900  Descending New York Center
Wed 08:14:29 AM 38.2608 -71.7564 311° West 407 468 36,000  Climbing New York Center
Wed 08:15:29 AM 38.3433 -71.8556 317° Northwest 401 461 35,900 -545 Descending New York Center
Wed 08:16:30 AM 38.4172 -71.9628 311° West 401 461 34,900 -992 Descending New York Center
Wed 08:17:30 AM 38.4956 -72.0675 314° West 401 461 33,900 -958 Descending New York Center
Wed 08:18:29 AM 38.5714 -72.1753 312° West 401 461 33,000 -900 Descending New York Center
Wed 08:19:30 AM 38.6492 -72.2806 313° West 401 461 32,100 -942 Descending New York Center
Wed 08:20:30 AM 38.7269 -72.3858 313° West 401 461 31,100 -942 Descending New York Center
Wed 08:21:31 AM 38.8025 -72.4969 311° West 406 467 30,200 -958 Descending New York Center
Wed 08:22:29 AM 38.8864 -72.6056 315° West 411 473 29,200 -958 Descending New York Center
Wed 08:23:30 AM 38.9639 -72.7172 312° West 416 479 28,300 -942 Descending New York Center
Wed 08:24:30 AM 39.0350 -72.8181 312° West 421 484 27,300 -1,537 Descending New York Center
Wed 08:25:31 AM 39.1267 -72.9439 313° West 421 484 25,200 -2,331 Descending New York Center
Wed 08:26:31 AM 39.1975 -73.0506 311° West 404 465 22,600 -2,593 Descending New York Center
Wed 08:27:29 AM 39.2664 -73.1492 312° West 387 445 20,100 -2,542 Descending New York Center
Wed 08:28:29 AM 39.3333 -73.2400 314° West 369 425 17,600 -2,500 Descending New York Center
Wed 08:29:29 AM 39.3981 -73.3336 312° West 356 410 15,100 -2,410 Descending New York Center
Wed 08:30:31 AM 39.4608 -73.4219 313° West 339 390 12,700 -2,430 Descending New York Center
Wed 08:31:30 AM 39.5214 -73.5078 312° West 334 384 10,200 -1,350 Descending New York Center
Wed 08:32:31 AM 39.5839 -73.5936 313° West 334 384 10,000 -153 Descending New York Center
Wed 08:33:28 AM 39.6403 -73.6769 311° West 315 362 9,900 -550 Descending New York Center
Wed 08:34:31 AM 39.6983 -73.7631 311° West 315 362 8,900 -976 Descending New York Center
Wed 08:35:31 AM 39.7569 -73.8436 313° West 315 362 7,900 -958 Descending New York Center
Wed 08:36:30 AM 39.8050 -73.9133 312° West 285 328 7,000 -807 Descending New York Center
Wed 08:37:30 AM 39.8450 -73.9719 312° West 251 289 6,300 -496 Descending New York Center
Wed 08:38:31 AM 39.8872 -74.0333 312° West 238 274 6,000 -151 Descending New York Center
Wed 08:39:29 AM 39.9353 -74.1033 312° West 232 267 6,000  Level New York Center
Wed 08:40:29 AM 39.9792 -74.1678 312° West 232 267 6,000  Level New York Center
Wed 08:41:29 AM 40.0172 -74.2211 313° West 232 267 6,000  Level New York Center
Wed 08:42:30 AM 40.0592 -74.2883 309° West 238 274 6,000  Level New York Center
Wed 08:43:32 AM 40.1069 -74.3558 313° West 238 274 6,000  Level New York Center
Wed 08:44:13 AM 40.1333 -74.4000 308° West 236 272 6,000  Level New York TRACON
Wed 08:45:13 AM 40.1833 -74.4667 314° West 239 275 6,000  Level New York TRACON
Wed 08:46:07 AM 40.2333 -74.4833 346° North 257 296 6,000 -167 Level New York TRACON
Wed 08:47:01 AM 40.3000 -74.4500 21° North 270 311 5,700 -684 Descending New York TRACON
Wed 08:48:01 AM 40.3500 -74.4000 37° Northeast 265 305 4,700 -1,000 Descending New York TRACON
Wed 08:49:01 AM 40.4167 -74.3500 30° Northeast 259 298 3,700 -850 Descending New York TRACON
Wed 08:50:01 AM 40.4833 -74.3000 30° Northeast 246 283 3,000 -700 Descending New York TRACON

Login

Don't have an account? Register now (free) for customized features, flight alerts, and more!